Bookmark and Share
Track history (hours):
 

Nathalie Ehler

Last reported at 2012-Aug-02 06:33 UTC. Time now 2014-Apr-19 06:58 UTC.
Position N 51°53' E 004°26'.
Warning: this ship's position is years out of date!

Length 133 m; draft 8 m.

Type: Ship (hazmat cat A). MMSI: 235872000.

NotesDate/timePositionNaut miles runAvg speedWind from/ knotsBaromVisibWave heightAir tempDewpointWater temp
2012-Aug-02 06:33N 51°53' E 004°26'0 0.0
2012-Aug-02 05:33N 51°53' E 004°26'0 0.0
2012-Aug-02 04:37N 51°53' E 004°26'0 0.0
2012-Aug-02 03:34N 51°53' E 004°26'0 0.0
2012-Aug-02 02:33N 51°53' E 004°26'0 0.0
2012-Aug-02 01:33N 51°53' E 004°26'0 0.0
2012-Aug-02 00:33N 51°53' E 004°26'5 4.6
2012-Aug-01 23:33N 51°54' E 004°18'1514.6
2012-Aug-01 22:33N 51°60' E 003°57'1615.0
2012-Aug-01 21:31N 51°56' E 003°32'1616.7
2012-Aug-01 20:33N 51°52' E 003°07'1616.5
2012-Aug-01 19:34N 51°47' E 002°42'1616.0
2012-Aug-01 18:33N 51°36' E 002°22'1716.8
2012-Aug-01 17:33N 51°24' E 002°04'1615.7
2012-Aug-01 16:34N 51°29' E 001°40'1413.7
2012-Aug-01 15:33N 51°29' E 001°18'1615.7
2012-Aug-01 14:33N 51°29' E 000°53'1616.2
2012-Aug-01 13:33N 51°27' E 000°27'2 0.2
2012-Aug-01 00:33N 51°27' E 000°23'9 9.4
2012-Jul-31 23:33N 51°30' E 000°37'1313.2
2012-Jul-31 22:33N 51°29' E 000°58'1715.4
2012-Jul-31 21:27N 51°29' E 001°25'4 4.4
2012-Jul-31 20:34N 51°25' E 001°26'0 0.0
2012-Jul-31 19:34N 51°25' E 001°26'0 0.2
2012-Jul-31 18:34N 51°25' E 001°26'0 0.0
2012-Jul-31 17:32N 51°25' E 001°26'0 0.0
2012-Jul-31 16:31N 51°25' E 001°26'0 0.0
2012-Jul-31 15:33N 51°25' E 001°26'0 0.0
2012-Jul-31 14:33N 51°25' E 001°26'0 0.0
2012-Jul-31 13:33N 51°25' E 001°26'0 0.0
2012-Jul-31 12:34N 51°25' E 001°26'0 0.1
2012-Jul-31 11:34N 51°25' E 001°26'0 0.0
2012-Jul-31 10:36N 51°25' E 001°26'1413.5
2012-Jul-31 09:34N 51°13' E 001°38'5814.5
2012-Jul-31 05:33N 50°27' E 000°42'  
2012-Jul-28 18:29N 39°16' W 009°51'2814.3
2012-Jul-28 16:33N 38°48' W 009°51'1414.2
2012-Jul-28 15:33N 38°34' W 009°49'1414.1
2012-Jul-28 14:33N 38°20' W 009°45'1414.2
2012-Jul-28 13:33N 38°07' W 009°41'1514.6
2012-Jul-28 12:33N 37°52' W 009°36'1514.7
2012-Jul-28 11:33N 37°38' W 009°32'1414.9
2012-Jul-28 10:36N 37°24' W 009°28'3214.8
2012-Jul-28 08:24N 36°53' W 009°18'1314.7
2012-Jul-28 07:33N 36°44' W 009°06'1515.0
2012-Jul-28 06:33N 36°39' W 008°48'1514.9
2012-Jul-28 05:33N 36°34' W 008°31'1715.7
2012-Jul-28 04:28N 36°29' W 008°11'53016.1
2012-Jul-26 19:34N 37°30' E 002°48'5511.0
2012-Jul-26 14:31N 37°44' E 003°56'6 5.9
2012-Jul-26 13:29N 37°46' E 004°03'8 8.7
2012-Jul-26 12:32N 37°48' E 004°13'10 9.6
2012-Jul-26 11:32N 37°50' E 004°25'9 9.5
2012-Jul-26 10:36N 37°52' E 004°36'1312.1
2012-Jul-26 09:32N 37°56' E 004°52'3316.4
2012-Jul-26 07:33N 38°04' E 005°32'1817.0
2012-Jul-26 06:31N 38°09' E 005°53'4523.4
2012-Jul-26 04:36N 38°20' E 006°48'4313.6
2012-Jul-26 01:27N 38°31' E 007°41'1415.6
2012-Jul-26 00:33N 38°35' E 007°59'27517.2
2012-Jul-25 08:32N 40°15' E 013°31'1717.3
2012-Jul-25 07:33N 40°21' E 013°51'1817.5
2012-Jul-25 06:33N 40°28' E 014°12'1717.5
2012-Jul-25 05:33N 40°34' E 014°34'44610.4
2012-Jul-23 10:36N 36°22' E 022°24'1614.9
2012-Jul-23 09:33N 36°24' E 022°43'1515.0
2012-Jul-23 08:31N 36°25' E 023°02'1313.4
2012-Jul-23 07:34N 36°29' E 023°18'1616.0
2012-Jul-23 06:34N 36°43' E 023°27'  

Dump ship's entire track history

sailing weather and tide predictions

Nathalie Ehler — MEMS3 — position and weather